sensor_id;sensor_type;location;lat;lon;timestamp;P1;durP1;ratioP1;P2;durP2;ratioP2
80987;SDS011;70452;39.386;-3.210;2024-01-30T00:25:26;12.48;;;5.43;;
80987;SDS011;70452;39.386;-3.210;2024-01-30T00:42:08;15.43;;;6.28;;
80987;SDS011;70452;39.386;-3.210;2024-01-30T01:05:52;14.70;;;5.20;;
80987;SDS011;70452;39.386;-3.210;2024-01-30T01:37:36;16.08;;;6.82;;
80987;SDS011;70452;39.386;-3.210;2024-01-30T02:58:19;17.23;;;6.13;;
80987;SDS011;70452;39.386;-3.210;2024-01-30T03:08:32;14.00;;;5.47;;
80987;SDS011;70452;39.386;-3.210;2024-01-30T03:11:46;19.25;;;6.75;;
80987;SDS011;70452;39.386;-3.210;2024-01-30T03:25:58;18.00;;;7.15;;
80987;SDS011;70452;39.386;-3.210;2024-01-30T03:39:25;18.17;;;5.68;;
80987;SDS011;70452;39.386;-3.210;2024-01-30T03:42:26;12.82;;;4.55;;
80987;SDS011;70452;39.386;-3.210;2024-01-30T03:46:00;18.38;;;6.90;;
80987;SDS011;70452;39.386;-3.210;2024-01-30T03:48:35;19.35;;;6.95;;
80987;SDS011;70452;39.386;-3.210;2024-01-30T03:51:22;21.27;;;7.70;;
80987;SDS011;70452;39.386;-3.210;2024-01-30T03:54:20;24.00;;;8.43;;
80987;SDS011;70452;39.386;-3.210;2024-01-30T03:57:21;12.90;;;5.57;;
80987;SDS011;70452;39.386;-3.210;2024-01-30T04:00:00;17.83;;;6.78;;
80987;SDS011;70452;39.386;-3.210;2024-01-30T04:02:37;18.63;;;7.03;;
80987;SDS011;70452;39.386;-3.210;2024-01-30T04:05:41;16.83;;;6.43;;
80987;SDS011;70452;39.386;-3.210;2024-01-30T04:08:43;18.35;;;6.88;;
80987;SDS011;70452;39.386;-3.210;2024-01-30T04:11:23;18.58;;;7.65;;
80987;SDS011;70452;39.386;-3.210;2024-01-30T04:17:22;18.27;;;7.43;;
80987;SDS011;70452;39.386;-3.210;2024-01-30T04:20:03;18.48;;;6.22;;
80987;SDS011;70452;39.386;-3.210;2024-01-30T04:22:52;13.82;;;7.10;;
80987;SDS011;70452;39.386;-3.210;2024-01-30T04:25:25;18.92;;;7.40;;
80987;SDS011;70452;39.386;-3.210;2024-01-30T04:28:02;18.33;;;6.35;;
80987;SDS011;70452;39.386;-3.210;2024-01-30T04:30:42;17.88;;;7.68;;
80987;SDS011;70452;39.386;-3.210;2024-01-30T04:33:23;17.63;;;5.97;;
80987;SDS011;70452;39.386;-3.210;2024-01-30T04:36:07;17.95;;;6.28;;
80987;SDS011;70452;39.386;-3.210;2024-01-30T04:45:02;18.25;;;6.65;;
80987;SDS011;70452;39.386;-3.210;2024-01-30T04:47:59;17.27;;;5.75;;
80987;SDS011;70452;39.386;-3.210;2024-01-30T04:51:14;16.98;;;6.97;;
80987;SDS011;70452;39.386;-3.210;2024-01-30T04:53:45;18.45;;;6.97;;
80987;SDS011;70452;39.386;-3.210;2024-01-30T04:56:50;15.80;;;5.05;;
80987;SDS011;70452;39.386;-3.210;2024-01-30T04:59:27;18.25;;;6.75;;
80987;SDS011;70452;39.386;-3.210;2024-01-30T05:02:07;18.08;;;5.90;;
80987;SDS011;70452;39.386;-3.210;2024-01-30T05:04:46;15.10;;;5.63;;
80987;SDS011;70452;39.386;-3.210;2024-01-30T05:07:41;18.50;;;6.88;;
80987;SDS011;70452;39.386;-3.210;2024-01-30T05:10:48;16.63;;;6.30;;
80987;SDS011;70452;39.386;-3.210;2024-01-30T05:13:30;15.57;;;6.80;;
80987;SDS011;70452;39.386;-3.210;2024-01-30T05:16:19;19.02;;;7.28;;
80987;SDS011;70452;39.386;-3.210;2024-01-30T05:22:04;16.02;;;7.55;;
80987;SDS011;70452;39.386;-3.210;2024-01-30T05:24:50;16.10;;;4.90;;
80987;SDS011;70452;39.386;-3.210;2024-01-30T05:27:43;19.25;;;6.03;;
80987;SDS011;70452;39.386;-3.210;2024-01-30T05:30:27;19.35;;;6.90;;
80987;SDS011;70452;39.386;-3.210;2024-01-30T05:35:55;17.63;;;6.43;;
80987;SDS011;70452;39.386;-3.210;2024-01-30T05:41:23;14.10;;;4.72;;
80987;SDS011;70452;39.386;-3.210;2024-01-30T05:44:06;17.42;;;6.30;;
80987;SDS011;70452;39.386;-3.210;2024-01-30T05:46:46;14.85;;;5.70;;
80987;SDS011;70452;39.386;-3.210;2024-01-30T05:49:33;14.40;;;5.85;;
80987;SDS011;70452;39.386;-3.210;2024-01-30T05:52:29;17.38;;;6.55;;
80987;SDS011;70452;39.386;-3.210;2024-01-30T05:55:22;15.38;;;5.50;;
80987;SDS011;70452;39.386;-3.210;2024-01-30T05:58:13;17.13;;;6.82;;
80987;SDS011;70452;39.386;-3.210;2024-01-30T06:01:14;18.77;;;6.03;;
80987;SDS011;70452;39.386;-3.210;2024-01-30T06:09:27;19.80;;;7.50;;
80987;SDS011;70452;39.386;-3.210;2024-01-30T06:15:06;19.95;;;8.60;;
80987;SDS011;70452;39.386;-3.210;2024-01-30T06:20:56;18.85;;;8.02;;
80987;SDS011;70452;39.386;-3.210;2024-01-30T06:23:30;23.20;;;7.90;;
80987;SDS011;70452;39.386;-3.210;2024-01-30T06:26:27;14.73;;;5.53;;
80987;SDS011;70452;39.386;-3.210;2024-01-30T06:29:24;18.77;;;6.70;;
80987;SDS011;70452;39.386;-3.210;2024-01-30T06:32:01;16.77;;;5.57;;
80987;SDS011;70452;39.386;-3.210;2024-01-30T06:35:11;15.50;;;5.72;;
80987;SDS011;70452;39.386;-3.210;2024-01-30T06:37:51;18.15;;;6.13;;
80987;SDS011;70452;39.386;-3.210;2024-01-30T06:40:49;17.35;;;6.63;;
80987;SDS011;70452;39.386;-3.210;2024-01-30T06:43:31;18.00;;;6.93;;
80987;SDS011;70452;39.386;-3.210;2024-01-30T06:46:33;17.25;;;6.85;;
80987;SDS011;70452;39.386;-3.210;2024-01-30T06:49:21;18.35;;;6.88;;
80987;SDS011;70452;39.386;-3.210;2024-01-30T06:52:14;17.85;;;6.88;;
80987;SDS011;70452;39.386;-3.210;2024-01-30T06:58:15;14.85;;;6.57;;
80987;SDS011;70452;39.386;-3.210;2024-01-30T07:01:07;16.90;;;6.53;;
80987;SDS011;70452;39.386;-3.210;2024-01-30T07:06:48;14.68;;;6.15;;
80987;SDS011;70452;39.386;-3.210;2024-01-30T07:09:59;18.77;;;6.07;;
80987;SDS011;70452;39.386;-3.210;2024-01-30T07:16:09;18.67;;;6.93;;
80987;SDS011;70452;39.386;-3.210;2024-01-30T07:19:12;18.33;;;6.10;;
80987;SDS011;70452;39.386;-3.210;2024-01-30T07:22:08;18.58;;;7.43;;
80987;SDS011;70452;39.386;-3.210;2024-01-30T07:24:57;17.55;;;6.82;;
80987;SDS011;70452;39.386;-3.210;2024-01-30T07:27:41;19.58;;;7.28;;
80987;SDS011;70452;39.386;-3.210;2024-01-30T07:30:14;20.38;;;7.00;;
80987;SDS011;70452;39.386;-3.210;2024-01-30T07:33:10;16.52;;;6.80;;
80987;SDS011;70452;39.386;-3.210;2024-01-30T07:36:07;18.10;;;6.32;;
80987;SDS011;70452;39.386;-3.210;2024-01-30T07:39:05;18.33;;;6.45;;
80987;SDS011;70452;39.386;-3.210;2024-01-30T07:42:09;18.02;;;6.45;;
80987;SDS011;70452;39.386;-3.210;2024-01-30T07:44:51;18.38;;;6.95;;
80987;SDS011;70452;39.386;-3.210;2024-01-30T07:47:41;19.33;;;7.00;;
80987;SDS011;70452;39.386;-3.210;2024-01-30T07:50:46;18.02;;;6.93;;
80987;SDS011;70452;39.386;-3.210;2024-01-30T07:56:41;15.48;;;6.05;;
80987;SDS011;70452;39.386;-3.210;2024-01-30T08:03:10;19.58;;;6.78;;
80987;SDS011;70452;39.386;-3.210;2024-01-30T08:09:17;17.27;;;5.30;;
80987;SDS011;70452;39.386;-3.210;2024-01-30T08:12:21;16.13;;;5.78;;
80987;SDS011;70452;39.386;-3.210;2024-01-30T08:15:08;14.13;;;5.97;;
80987;SDS011;70452;39.386;-3.210;2024-01-30T08:17:51;16.33;;;5.38;;
80987;SDS011;70452;39.386;-3.210;2024-01-30T08:20:34;17.85;;;6.20;;
80987;SDS011;70452;39.386;-3.210;2024-01-30T08:23:19;17.65;;;5.70;;
80987;SDS011;70452;39.386;-3.210;2024-01-30T08:25:56;16.30;;;6.55;;
80987;SDS011;70452;39.386;-3.210;2024-01-30T08:28:43;16.02;;;6.07;;
80987;SDS011;70452;39.386;-3.210;2024-01-30T08:31:22;14.63;;;5.88;;
80987;SDS011;70452;39.386;-3.210;2024-01-30T08:34:12;21.85;;;8.85;;
80987;SDS011;70452;39.386;-3.210;2024-01-30T08:36:58;15.20;;;5.55;;
80987;SDS011;70452;39.386;-3.210;2024-01-30T08:43:36;15.50;;;6.00;;
80987;SDS011;70452;39.386;-3.210;2024-01-30T08:46:21;14.20;;;5.63;;
80987;SDS011;70452;39.386;-3.210;2024-01-30T08:49:13;16.08;;;6.00;;
80987;SDS011;70452;39.386;-3.210;2024-01-30T08:51:55;15.48;;;5.45;;
80987;SDS011;70452;39.386;-3.210;2024-01-30T08:54:35;14.82;;;4.63;;
80987;SDS011;70452;39.386;-3.210;2024-01-30T08:57:44;15.55;;;5.25;;
80987;SDS011;70452;39.386;-3.210;2024-01-30T09:00:36;12.80;;;4.97;;
80987;SDS011;70452;39.386;-3.210;2024-01-30T09:09:11;11.65;;;3.92;;
80987;SDS011;70452;39.386;-3.210;2024-01-30T09:12:06;14.73;;;4.32;;
80987;SDS011;70452;39.386;-3.210;2024-01-30T09:15:03;13.13;;;4.65;;
80987;SDS011;70452;39.386;-3.210;2024-01-30T09:21:31;12.50;;;4.70;;
80987;SDS011;70452;39.386;-3.210;2024-01-30T09:27:15;12.77;;;4.70;;
80987;SDS011;70452;39.386;-3.210;2024-01-30T09:30:26;12.52;;;4.85;;
80987;SDS011;70452;39.386;-3.210;2024-01-30T09:36:16;14.45;;;5.05;;
80987;SDS011;70452;39.386;-3.210;2024-01-30T09:38:56;12.57;;;5.20;;
80987;SDS011;70452;39.386;-3.210;2024-01-30T09:42:02;12.95;;;4.78;;
80987;SDS011;70452;39.386;-3.210;2024-01-30T09:48:13;12.73;;;4.43;;
80987;SDS011;70452;39.386;-3.210;2024-01-30T09:54:20;14.90;;;4.75;;
80987;SDS011;70452;39.386;-3.210;2024-01-30T09:56:59;11.68;;;5.25;;
80987;SDS011;70452;39.386;-3.210;2024-01-30T10:00:14;15.25;;;5.28;;
80987;SDS011;70452;39.386;-3.210;2024-01-30T10:03:06;14.85;;;4.88;;
80987;SDS011;70452;39.386;-3.210;2024-01-30T10:06:23;15.82;;;6.00;;
80987;SDS011;70452;39.386;-3.210;2024-01-30T10:09:00;11.43;;;4.38;;
80987;SDS011;70452;39.386;-3.210;2024-01-30T10:11:48;13.00;;;5.45;;
80987;SDS011;70452;39.386;-3.210;2024-01-30T10:14:46;12.10;;;5.00;;
80987;SDS011;70452;39.386;-3.210;2024-01-30T10:17:28;16.25;;;5.65;;
80987;SDS011;70452;39.386;-3.210;2024-01-30T10:20:07;15.50;;;5.50;;
80987;SDS011;70452;39.386;-3.210;2024-01-30T10:22:52;13.25;;;5.13;;
80987;SDS011;70452;39.386;-3.210;2024-01-30T10:25:36;11.63;;;4.70;;
80987;SDS011;70452;39.386;-3.210;2024-01-30T10:31:18;12.93;;;4.53;;
80987;SDS011;70452;39.386;-3.210;2024-01-30T10:34:21;14.38;;;6.00;;
80987;SDS011;70452;39.386;-3.210;2024-01-30T10:37:16;12.00;;;4.78;;
80987;SDS011;70452;39.386;-3.210;2024-01-30T10:39:49;14.77;;;5.35;;
80987;SDS011;70452;39.386;-3.210;2024-01-30T10:46:18;14.73;;;5.65;;
80987;SDS011;70452;39.386;-3.210;2024-01-30T10:49:11;11.95;;;5.15;;
80987;SDS011;70452;39.386;-3.210;2024-01-30T10:52:01;12.30;;;4.65;;
80987;SDS011;70452;39.386;-3.210;2024-01-30T10:58:03;12.77;;;4.28;;
80987;SDS011;70452;39.386;-3.210;2024-01-30T11:00:47;13.10;;;5.03;;
80987;SDS011;70452;39.386;-3.210;2024-01-30T11:03:31;12.45;;;4.95;;
80987;SDS011;70452;39.386;-3.210;2024-01-30T11:09:47;15.27;;;5.35;;
80987;SDS011;70452;39.386;-3.210;2024-01-30T11:12:46;13.98;;;5.50;;
80987;SDS011;70452;39.386;-3.210;2024-01-30T11:15:37;13.95;;;5.90;;
80987;SDS011;70452;39.386;-3.210;2024-01-30T11:21:06;16.75;;;5.68;;
80987;SDS011;70452;39.386;-3.210;2024-01-30T11:24:10;15.85;;;5.65;;
80987;SDS011;70452;39.386;-3.210;2024-01-30T11:27:03;12.65;;;5.10;;
80987;SDS011;70452;39.386;-3.210;2024-01-30T11:33:35;14.48;;;5.10;;
80987;SDS011;70452;39.386;-3.210;2024-01-30T11:36:20;13.68;;;5.97;;
80987;SDS011;70452;39.386;-3.210;2024-01-30T11:39:25;20.02;;;6.68;;
80987;SDS011;70452;39.386;-3.210;2024-01-30T11:45:15;16.27;;;6.05;;
80987;SDS011;70452;39.386;-3.210;2024-01-30T11:48:29;15.05;;;5.38;;
80987;SDS011;70452;39.386;-3.210;2024-01-30T11:51:50;11.48;;;5.65;;
80987;SDS011;70452;39.386;-3.210;2024-01-30T11:54:51;16.23;;;5.90;;
80987;SDS011;70452;39.386;-3.210;2024-01-30T11:57:28;13.05;;;5.78;;
80987;SDS011;70452;39.386;-3.210;2024-01-30T12:10:08;12.20;;;5.55;;
80987;SDS011;70452;39.386;-3.210;2024-01-30T12:12:44;12.65;;;4.55;;
80987;SDS011;70452;39.386;-3.210;2024-01-30T12:15:35;13.32;;;5.45;;
80987;SDS011;70452;39.386;-3.210;2024-01-30T12:18:42;14.93;;;5.05;;
80987;SDS011;70452;39.386;-3.210;2024-01-30T12:21:31;14.45;;;5.47;;
80987;SDS011;70452;39.386;-3.210;2024-01-30T12:24:33;10.88;;;5.55;;
80987;SDS011;70452;39.386;-3.210;2024-01-30T12:30:32;10.50;;;5.05;;
80987;SDS011;70452;39.386;-3.210;2024-01-30T12:33:46;12.90;;;4.65;;
80987;SDS011;70452;39.386;-3.210;2024-01-30T12:36:45;12.52;;;5.05;;
80987;SDS011;70452;39.386;-3.210;2024-01-30T12:42:25;14.48;;;4.97;;
80987;SDS011;70452;39.386;-3.210;2024-01-30T12:45:13;11.25;;;5.18;;
80987;SDS011;70452;39.386;-3.210;2024-01-30T12:48:00;16.10;;;5.95;;
80987;SDS011;70452;39.386;-3.210;2024-01-30T12:54:07;12.05;;;5.22;;
80987;SDS011;70452;39.386;-3.210;2024-01-30T12:57:00;12.65;;;5.35;;
80987;SDS011;70452;39.386;-3.210;2024-01-30T12:59:44;11.00;;;5.00;;
80987;SDS011;70452;39.386;-3.210;2024-01-30T13:06:00;12.23;;;5.30;;
80987;SDS011;70452;39.386;-3.210;2024-01-30T13:08:59;11.88;;;5.03;;
80987;SDS011;70452;39.386;-3.210;2024-01-30T13:11:32;13.13;;;4.75;;
80987;SDS011;70452;39.386;-3.210;2024-01-30T13:14:14;13.73;;;5.93;;
80987;SDS011;70452;39.386;-3.210;2024-01-30T13:16:50;13.75;;;4.85;;
80987;SDS011;70452;39.386;-3.210;2024-01-30T13:19:27;15.85;;;5.68;;
80987;SDS011;70452;39.386;-3.210;2024-01-30T13:22:01;10.80;;;4.65;;
80987;SDS011;70452;39.386;-3.210;2024-01-30T13:24:40;11.40;;;5.13;;
80987;SDS011;70452;39.386;-3.210;2024-01-30T13:27:30;12.40;;;4.97;;
80987;SDS011;70452;39.386;-3.210;2024-01-30T13:30:20;11.23;;;5.18;;
80987;SDS011;70452;39.386;-3.210;2024-01-30T13:33:01;11.45;;;5.78;;
80987;SDS011;70452;39.386;-3.210;2024-01-30T13:39:15;12.18;;;4.90;;
80987;SDS011;70452;39.386;-3.210;2024-01-30T13:45:21;11.48;;;4.78;;
80987;SDS011;70452;39.386;-3.210;2024-01-30T13:51:02;12.20;;;4.47;;
80987;SDS011;70452;39.386;-3.210;2024-01-30T13:53:53;10.43;;;4.43;;
80987;SDS011;70452;39.386;-3.210;2024-01-30T14:00:06;14.85;;;5.03;;
80987;SDS011;70452;39.386;-3.210;2024-01-30T14:03:18;13.27;;;4.50;;
80987;SDS011;70452;39.386;-3.210;2024-01-30T14:06:11;13.10;;;4.65;;
80987;SDS011;70452;39.386;-3.210;2024-01-30T14:08:55;15.82;;;5.03;;
80987;SDS011;70452;39.386;-3.210;2024-01-30T14:11:48;13.65;;;4.70;;
80987;SDS011;70452;39.386;-3.210;2024-01-30T14:14:31;13.15;;;5.57;;
80987;SDS011;70452;39.386;-3.210;2024-01-30T14:17:05;10.77;;;3.92;;
80987;SDS011;70452;39.386;-3.210;2024-01-30T14:22:56;10.30;;;3.88;;
80987;SDS011;70452;39.386;-3.210;2024-01-30T14:31:31;10.15;;;4.03;;
80987;SDS011;70452;39.386;-3.210;2024-01-30T14:40:13;10.82;;;4.40;;
80987;SDS011;70452;39.386;-3.210;2024-01-30T14:43:07;12.80;;;3.92;;
80987;SDS011;70452;39.386;-3.210;2024-01-30T14:45:49;13.95;;;4.63;;
80987;SDS011;70452;39.386;-3.210;2024-01-30T14:48:40;12.68;;;4.63;;
80987;SDS011;70452;39.386;-3.210;2024-01-30T14:51:17;11.25;;;4.80;;
80987;SDS011;70452;39.386;-3.210;2024-01-30T14:53:57;9.70;;;3.45;;
80987;SDS011;70452;39.386;-3.210;2024-01-30T14:57:06;10.43;;;3.97;;
80987;SDS011;70452;39.386;-3.210;2024-01-30T15:03:08;11.02;;;3.20;;
80987;SDS011;70452;39.386;-3.210;2024-01-30T15:05:45;9.25;;;3.20;;
80987;SDS011;70452;39.386;-3.210;2024-01-30T15:08:57;8.85;;;3.90;;
80987;SDS011;70452;39.386;-3.210;2024-01-30T15:12:27;9.27;;;3.92;;
80987;SDS011;70452;39.386;-3.210;2024-01-30T15:17:44;8.68;;;2.85;;
80987;SDS011;70452;39.386;-3.210;2024-01-30T15:23:57;9.35;;;3.28;;
80987;SDS011;70452;39.386;-3.210;2024-01-30T15:26:58;13.27;;;4.47;;
80987;SDS011;70452;39.386;-3.210;2024-01-30T15:32:56;10.85;;;4.38;;
80987;SDS011;70452;39.386;-3.210;2024-01-30T15:36:07;10.15;;;3.35;;
80987;SDS011;70452;39.386;-3.210;2024-01-30T15:38:50;11.93;;;3.30;;
80987;SDS011;70452;39.386;-3.210;2024-01-30T15:41:41;8.50;;;3.00;;
80987;SDS011;70452;39.386;-3.210;2024-01-30T15:44:29;11.13;;;3.08;;
80987;SDS011;70452;39.386;-3.210;2024-01-30T15:47:12;12.43;;;4.35;;
80987;SDS011;70452;39.386;-3.210;2024-01-30T15:50:08;11.07;;;3.47;;
80987;SDS011;70452;39.386;-3.210;2024-01-30T15:53:13;9.95;;;3.50;;
80987;SDS011;70452;39.386;-3.210;2024-01-30T15:56:04;10.60;;;3.20;;
80987;SDS011;70452;39.386;-3.210;2024-01-30T15:58:59;11.98;;;4.38;;
80987;SDS011;70452;39.386;-3.210;2024-01-30T16:01:51;9.60;;;3.55;;
80987;SDS011;70452;39.386;-3.210;2024-01-30T16:07:23;10.70;;;3.85;;
80987;SDS011;70452;39.386;-3.210;2024-01-30T16:10:13;10.02;;;3.25;;
80987;SDS011;70452;39.386;-3.210;2024-01-30T16:19:18;8.60;;;3.50;;
80987;SDS011;70452;39.386;-3.210;2024-01-30T16:22:11;10.57;;;3.22;;
80987;SDS011;70452;39.386;-3.210;2024-01-30T16:28:09;8.45;;;3.83;;
80987;SDS011;70452;39.386;-3.210;2024-01-30T16:31:06;12.20;;;3.88;;
80987;SDS011;70452;39.386;-3.210;2024-01-30T16:33:50;9.63;;;3.67;;
80987;SDS011;70452;39.386;-3.210;2024-01-30T16:39:33;9.63;;;3.65;;
80987;SDS011;70452;39.386;-3.210;2024-01-30T16:45:09;8.55;;;3.15;;
80987;SDS011;70452;39.386;-3.210;2024-01-30T16:50:27;10.88;;;3.85;;
80987;SDS011;70452;39.386;-3.210;2024-01-30T16:53:32;11.40;;;4.07;;
80987;SDS011;70452;39.386;-3.210;2024-01-30T16:59:43;14.98;;;4.03;;
80987;SDS011;70452;39.386;-3.210;2024-01-30T17:05:40;10.63;;;4.22;;
80987;SDS011;70452;39.386;-3.210;2024-01-30T17:08:12;8.48;;;2.92;;
80987;SDS011;70452;39.386;-3.210;2024-01-30T17:10:50;9.13;;;3.17;;
80987;SDS011;70452;39.386;-3.210;2024-01-30T17:13:51;11.70;;;3.00;;
80987;SDS011;70452;39.386;-3.210;2024-01-30T17:17:04;13.32;;;3.42;;
80987;SDS011;70452;39.386;-3.210;2024-01-30T17:19:41;8.55;;;3.08;;
80987;SDS011;70452;39.386;-3.210;2024-01-30T17:22:18;9.63;;;3.30;;
80987;SDS011;70452;39.386;-3.210;2024-01-30T17:25:21;10.23;;;3.00;;
80987;SDS011;70452;39.386;-3.210;2024-01-30T17:28:31;10.57;;;3.55;;
80987;SDS011;70452;39.386;-3.210;2024-01-30T17:34:04;10.68;;;2.90;;
80987;SDS011;70452;39.386;-3.210;2024-01-30T17:36:54;8.95;;;3.50;;
80987;SDS011;70452;39.386;-3.210;2024-01-30T17:40:06;10.13;;;3.53;;
80987;SDS011;70452;39.386;-3.210;2024-01-30T17:43:06;9.48;;;3.17;;
80987;SDS011;70452;39.386;-3.210;2024-01-30T17:45:43;9.38;;;3.17;;
80987;SDS011;70452;39.386;-3.210;2024-01-30T17:51:05;10.82;;;3.65;;
80987;SDS011;70452;39.386;-3.210;2024-01-30T17:53:55;12.90;;;3.55;;
80987;SDS011;70452;39.386;-3.210;2024-01-30T17:56:38;11.02;;;2.55;;
80987;SDS011;70452;39.386;-3.210;2024-01-30T17:59:35;10.43;;;3.15;;
80987;SDS011;70452;39.386;-3.210;2024-01-30T18:02:34;9.07;;;3.70;;
80987;SDS011;70452;39.386;-3.210;2024-01-30T18:05:13;9.48;;;3.42;;
80987;SDS011;70452;39.386;-3.210;2024-01-30T18:08:20;15.30;;;3.45;;
80987;SDS011;70452;39.386;-3.210;2024-01-30T18:11:06;11.75;;;3.92;;
80987;SDS011;70452;39.386;-3.210;2024-01-30T18:16:52;13.07;;;4.10;;
80987;SDS011;70452;39.386;-3.210;2024-01-30T18:20:05;11.75;;;3.60;;
80987;SDS011;70452;39.386;-3.210;2024-01-30T18:23:07;9.25;;;3.90;;
80987;SDS011;70452;39.386;-3.210;2024-01-30T18:26:05;12.35;;;3.60;;
80987;SDS011;70452;39.386;-3.210;2024-01-30T18:31:52;9.30;;;3.25;;
80987;SDS011;70452;39.386;-3.210;2024-01-30T18:34:37;13.23;;;3.95;;
80987;SDS011;70452;39.386;-3.210;2024-01-30T18:37:41;10.50;;;4.28;;
80987;SDS011;70452;39.386;-3.210;2024-01-30T18:40:15;15.73;;;4.10;;
80987;SDS011;70452;39.386;-3.210;2024-01-30T18:45:50;15.13;;;7.32;;
80987;SDS011;70452;39.386;-3.210;2024-01-30T18:48:27;13.52;;;4.38;;
80987;SDS011;70452;39.386;-3.210;2024-01-30T18:51:14;18.58;;;4.57;;
80987;SDS011;70452;39.386;-3.210;2024-01-30T18:53:54;15.93;;;4.50;;
80987;SDS011;70452;39.386;-3.210;2024-01-30T18:56:48;25.42;;;7.30;;
80987;SDS011;70452;39.386;-3.210;2024-01-30T18:59:17;20.45;;;6.35;;
80987;SDS011;70452;39.386;-3.210;2024-01-30T19:02:04;19.17;;;6.55;;
80987;SDS011;70452;39.386;-3.210;2024-01-30T19:05:14;13.75;;;5.00;;
80987;SDS011;70452;39.386;-3.210;2024-01-30T19:08:16;16.33;;;4.85;;
80987;SDS011;70452;39.386;-3.210;2024-01-30T19:11:03;10.50;;;4.13;;
80987;SDS011;70452;39.386;-3.210;2024-01-30T19:14:08;13.18;;;3.85;;
80987;SDS011;70452;39.386;-3.210;2024-01-30T19:16:59;11.32;;;3.83;;
80987;SDS011;70452;39.386;-3.210;2024-01-30T19:19:45;8.23;;;3.42;;
80987;SDS011;70452;39.386;-3.210;2024-01-30T19:23:01;11.13;;;3.08;;
80987;SDS011;70452;39.386;-3.210;2024-01-30T19:34:55;8.80;;;2.88;;
80987;SDS011;70452;39.386;-3.210;2024-01-30T19:37:28;11.98;;;3.88;;
80987;SDS011;70452;39.386;-3.210;2024-01-30T19:46:50;13.40;;;3.47;;
80987;SDS011;70452;39.386;-3.210;2024-01-30T19:49:24;8.93;;;3.30;;
80987;SDS011;70452;39.386;-3.210;2024-01-30T19:52:04;11.65;;;3.17;;
80987;SDS011;70452;39.386;-3.210;2024-01-30T19:54:38;9.02;;;2.80;;
80987;SDS011;70452;39.386;-3.210;2024-01-30T19:57:36;12.43;;;3.50;;
80987;SDS011;70452;39.386;-3.210;2024-01-30T20:03:35;10.57;;;3.53;;
80987;SDS011;70452;39.386;-3.210;2024-01-30T20:06:50;11.27;;;3.85;;
80987;SDS011;70452;39.386;-3.210;2024-01-30T20:10:02;12.95;;;3.95;;
80987;SDS011;70452;39.386;-3.210;2024-01-30T20:12:52;8.90;;;3.30;;
80987;SDS011;70452;39.386;-3.210;2024-01-30T20:15:49;8.93;;;3.47;;
80987;SDS011;70452;39.386;-3.210;2024-01-30T20:18:26;16.60;;;3.83;;
80987;SDS011;70452;39.386;-3.210;2024-01-30T20:21:26;7.35;;;2.55;;
80987;SDS011;70452;39.386;-3.210;2024-01-30T20:24:07;8.82;;;2.80;;
80987;SDS011;70452;39.386;-3.210;2024-01-30T20:26:52;9.82;;;2.75;;
80987;SDS011;70452;39.386;-3.210;2024-01-30T20:29:42;10.90;;;3.33;;
80987;SDS011;70452;39.386;-3.210;2024-01-30T20:32:14;11.02;;;2.75;;
80987;SDS011;70452;39.386;-3.210;2024-01-30T20:35:11;10.48;;;3.17;;
80987;SDS011;70452;39.386;-3.210;2024-01-30T20:41:01;11.85;;;4.13;;
80987;SDS011;70452;39.386;-3.210;2024-01-30T20:43:33;9.50;;;2.45;;
80987;SDS011;70452;39.386;-3.210;2024-01-30T20:45:59;9.90;;;3.13;;
80987;SDS011;70452;39.386;-3.210;2024-01-30T20:48:47;9.20;;;3.15;;
80987;SDS011;70452;39.386;-3.210;2024-01-30T20:51:37;10.00;;;4.05;;
80987;SDS011;70452;39.386;-3.210;2024-01-30T20:54:08;11.38;;;4.07;;
80987;SDS011;70452;39.386;-3.210;2024-01-30T20:57:15;11.85;;;3.80;;
80987;SDS011;70452;39.386;-3.210;2024-01-30T21:07:54;8.27;;;2.63;;
80987;SDS011;70452;39.386;-3.210;2024-01-30T21:17:46;10.23;;;3.22;;
80987;SDS011;70452;39.386;-3.210;2024-01-30T21:21:06;13.30;;;3.22;;
80987;SDS011;70452;39.386;-3.210;2024-01-30T21:23:56;11.63;;;4.20;;
80987;SDS011;70452;39.386;-3.210;2024-01-30T21:27:10;10.93;;;4.40;;
80987;SDS011;70452;39.386;-3.210;2024-01-30T22:20:01;14.13;;;4.40;;
80987;SDS011;70452;39.386;-3.210;2024-01-30T22:33:26;13.75;;;4.60;;
80987;SDS011;70452;39.386;-3.210;2024-01-30T23:13:19;10.63;;;3.78;;
80987;SDS011;70452;39.386;-3.210;2024-01-30T23:19:59;14.85;;;4.45;;
80987;SDS011;70452;39.386;-3.210;2024-01-30T23:23:03;14.38;;;6.35;;
